sensor_id;sensor_type;location;lat;lon;timestamp;pressure;altitude;pressure_sealevel;temperature;humidity
57779;BME280;43608;49.486;9.640;2023-04-05T00:00:15;99382.91;;;-1.91;74.44
57779;BME280;43608;49.486;9.640;2023-04-05T00:00:46;99382.03;;;-1.92;74.63
57779;BME280;43608;49.486;9.640;2023-04-05T00:01:17;99385.44;;;-1.93;74.57
57779;BME280;43608;49.486;9.640;2023-04-05T00:01:49;99383.84;;;-1.91;74.78
57779;BME280;43608;49.486;9.640;2023-04-05T00:02:22;99369.50;;;-1.99;74.66
57779;BME280;43608;49.486;9.640;2023-04-05T00:02:56;99370.56;;;-1.95;74.75
57779;BME280;43608;49.486;9.640;2023-04-05T00:03:27;99378.72;;;-1.89;74.54
57779;BME280;43608;49.486;9.640;2023-04-05T00:03:58;99383.03;;;-1.90;74.52
57779;BME280;43608;49.486;9.640;2023-04-05T00:04:29;99381.31;;;-1.89;74.84
57779;BME280;43608;49.486;9.640;2023-04-05T00:05:03;99371.38;;;-1.96;74.82
57779;BME280;43608;49.486;9.640;2023-04-05T00:05:34;99369.78;;;-1.94;74.97
57779;BME280;43608;49.486;9.640;2023-04-05T00:06:06;99362.41;;;-2.02;75.03
57779;BME280;43608;49.486;9.640;2023-04-05T00:06:36;99351.88;;;-2.05;74.79
57779;BME280;43608;49.486;9.640;2023-04-05T00:07:09;99367.25;;;-1.93;74.69
57779;BME280;43608;49.486;9.640;2023-04-05T00:07:41;99376.91;;;-1.90;74.73
57779;BME280;43608;49.486;9.640;2023-04-05T00:08:11;99349.28;;;-2.05;74.78
57779;BME280;43608;49.486;9.640;2023-04-05T00:09:26;99378.63;;;-1.91;74.94
57779;BME280;43608;49.486;9.640;2023-04-05T00:09:57;99368.78;;;-1.96;74.89
57779;BME280;43608;49.486;9.640;2023-04-05T00:10:29;99375.97;;;-1.92;74.98
57779;BME280;43608;49.486;9.640;2023-04-05T00:11:00;99357.34;;;-2.00;75.00
57779;BME280;43608;49.486;9.640;2023-04-05T00:11:31;99351.88;;;-2.05;74.92
57779;BME280;43608;49.486;9.640;2023-04-05T00:12:02;99351.88;;;-2.05;74.89
57779;BME280;43608;49.486;9.640;2023-04-05T00:12:32;99373.38;;;-1.92;74.93
57779;BME280;43608;49.486;9.640;2023-04-05T00:13:06;99378.63;;;-1.91;75.10
57779;BME280;43608;49.486;9.640;2023-04-05T00:13:36;99361.09;;;-1.95;75.18
57779;BME280;43608;49.486;9.640;2023-04-05T00:14:07;99364.66;;;-1.93;75.20
57779;BME280;43608;49.486;9.640;2023-04-05T00:14:37;99367.44;;;-1.90;75.25
57779;BME280;43608;49.486;9.640;2023-04-05T00:15:08;99311.97;;;-2.22;75.20
57779;BME280;43608;49.486;9.640;2023-04-05T00:15:38;99348.56;;;-2.02;74.95
57779;BME280;43608;49.486;9.640;2023-04-05T00:16:10;99361.19;;;-1.93;75.12
57779;BME280;43608;49.486;9.640;2023-04-05T00:16:41;99370.03;;;-1.90;75.30
57779;BME280;43608;49.486;9.640;2023-04-05T00:17:12;99363.13;;;-1.89;75.25
57779;BME280;43608;49.486;9.640;2023-04-05T00:17:43;99348.72;;;-1.99;75.23
57779;BME280;43608;49.486;9.640;2023-04-05T00:18:14;99366.59;;;-1.89;75.04
57779;BME280;43608;49.486;9.640;2023-04-05T00:18:51;99340.69;;;-2.04;75.05
57779;BME280;43608;49.486;9.640;2023-04-05T00:19:21;99346.22;;;-1.97;75.11
57779;BME280;43608;49.486;9.640;2023-04-05T00:19:52;99340.69;;;-2.04;75.07
57779;BME280;43608;49.486;9.640;2023-04-05T00:20:26;99360.44;;;-1.91;75.16
57779;BME280;43608;49.486;9.640;2023-04-05T00:20:56;99352.56;;;-1.92;75.24
57779;BME280;43608;49.486;9.640;2023-04-05T00:21:26;99357.13;;;-1.88;75.45
57779;BME280;43608;49.486;9.640;2023-04-05T00:21:57;99354.44;;;-1.90;75.23
57779;BME280;43608;49.486;9.640;2023-04-05T00:22:27;99339.88;;;-2.03;75.14
57779;BME280;43608;49.486;9.640;2023-04-05T00:23:00;99359.53;;;-1.91;75.16
57779;BME280;43608;49.486;9.640;2023-04-05T00:23:31;99360.53;;;-1.89;75.18
57779;BME280;43608;49.486;9.640;2023-04-05T00:24:07;99357.06;;;-1.90;75.21
57779;BME280;43608;49.486;9.640;2023-04-05T00:24:44;99355.19;;;-1.92;75.44
57779;BME280;43608;49.486;9.640;2023-04-05T00:25:16;99360.53;;;-1.89;75.40
57779;BME280;43608;49.486;9.640;2023-04-05T00:25:46;99345.16;;;-2.01;75.60
57779;BME280;43608;49.486;9.640;2023-04-05T00:26:17;99347.91;;;-1.98;75.35
57779;BME280;43608;49.486;9.640;2023-04-05T00:26:48;99352.38;;;-1.95;75.59
57779;BME280;43608;49.486;9.640;2023-04-05T00:27:18;99351.31;;;-1.99;75.57
57779;BME280;43608;49.486;9.640;2023-04-05T00:27:49;99353.09;;;-1.98;75.84
57779;BME280;43608;49.486;9.640;2023-04-05T00:28:23;99338.88;;;-2.05;75.56
57779;BME280;43608;49.486;9.640;2023-04-05T00:28:53;99359.47;;;-1.93;75.85
57779;BME280;43608;49.486;9.640;2023-04-05T00:29:27;99323.78;;;-2.12;75.93
57779;BME280;43608;49.486;9.640;2023-04-05T00:29:57;99349.63;;;-1.98;75.90
57779;BME280;43608;49.486;9.640;2023-04-05T00:30:30;99347.91;;;-1.98;75.94
57779;BME280;43608;49.486;9.640;2023-04-05T00:31:04;99333.69;;;-2.05;76.34
57779;BME280;43608;49.486;9.640;2023-04-05T00:31:34;99341.75;;;-2.00;76.10
57779;BME280;43608;49.486;9.640;2023-04-05T00:32:05;99344.34;;;-2.00;76.03
57779;BME280;43608;49.486;9.640;2023-04-05T00:32:35;99352.38;;;-1.95;76.03
57779;BME280;43608;49.486;9.640;2023-04-05T00:33:06;99341.56;;;-2.03;76.27
57779;BME280;43608;49.486;9.640;2023-04-05T00:33:39;99339.97;;;-2.01;76.18
57779;BME280;43608;49.486;9.640;2023-04-05T00:34:10;99342.63;;;-2.00;76.25
57779;BME280;43608;49.486;9.640;2023-04-05T00:34:41;99336.38;;;-2.03;76.11
57779;BME280;43608;49.486;9.640;2023-04-05T00:35:12;99333.84;;;-2.02;76.22
57779;BME280;43608;49.486;9.640;2023-04-05T00:35:42;99334.69;;;-2.03;76.29
57779;BME280;43608;49.486;9.640;2023-04-05T00:36:19;99343.63;;;-1.97;76.48
57779;BME280;43608;49.486;9.640;2023-04-05T00:36:50;99318.66;;;-2.10;76.54
57779;BME280;43608;49.486;9.640;2023-04-05T00:37:22;99337.28;;;-2.03;76.29
57779;BME280;43608;49.486;9.640;2023-04-05T00:37:54;99337.53;;;-1.98;76.36
57779;BME280;43608;49.486;9.640;2023-04-05T00:38:26;99340.13;;;-1.98;76.17
57779;BME280;43608;49.486;9.640;2023-04-05T00:38:56;99341.84;;;-1.98;76.32
57779;BME280;43608;49.486;9.640;2023-04-05T00:39:26;99331.00;;;-2.06;76.23
57779;BME280;43608;49.486;9.640;2023-04-05T00:39:57;99327.53;;;-2.07;76.28
57779;BME280;43608;49.486;9.640;2023-04-05T00:40:27;99298.09;;;-2.22;76.26
57779;BME280;43608;49.486;9.640;2023-04-05T00:40:58;99337.34;;;-2.01;76.17
57779;BME280;43608;49.486;9.640;2023-04-05T00:41:37;99340.69;;;-2.04;76.29
57779;BME280;43608;49.486;9.640;2023-04-05T00:42:09;99327.34;;;-2.10;76.18
57779;BME280;43608;49.486;9.640;2023-04-05T00:42:40;99337.16;;;-2.04;76.38
57779;BME280;43608;49.486;9.640;2023-04-05T00:43:10;99315.56;;;-2.20;76.35
57779;BME280;43608;49.486;9.640;2023-04-05T00:43:43;99334.56;;;-2.04;76.45
57779;BME280;43608;49.486;9.640;2023-04-05T00:44:13;99319.38;;;-2.13;76.37
57779;BME280;43608;49.486;9.640;2023-04-05T00:44:44;99318.47;;;-2.13;76.21
57779;BME280;43608;49.486;9.640;2023-04-05T00:45:14;99341.41;;;-2.06;76.49
57779;BME280;43608;49.486;9.640;2023-04-05T00:45:45;99331.72;;;-2.09;76.23
57779;BME280;43608;49.486;9.640;2023-04-05T00:46:22;99335.06;;;-2.11;76.27
57779;BME280;43608;49.486;9.640;2023-04-05T00:46:52;99337.81;;;-2.08;76.27
57779;BME280;43608;49.486;9.640;2023-04-05T00:47:26;99334.34;;;-2.09;76.32
57779;BME280;43608;49.486;9.640;2023-04-05T00:47:56;99331.66;;;-2.10;76.35
57779;BME280;43608;49.486;9.640;2023-04-05T00:48:27;99318.31;;;-2.17;76.42
57779;BME280;43608;49.486;9.640;2023-04-05T00:49:02;99337.66;;;-2.11;76.42
57779;BME280;43608;49.486;9.640;2023-04-05T00:49:34;99326.19;;;-2.15;76.56
57779;BME280;43608;49.486;9.640;2023-04-05T00:50:06;99311.88;;;-2.23;76.53
57779;BME280;43608;49.486;9.640;2023-04-05T00:50:37;99332.44;;;-2.11;76.66
57779;BME280;43608;49.486;9.640;2023-04-05T00:51:13;99327.09;;;-2.14;76.38
57779;BME280;43608;49.486;9.640;2023-04-05T00:51:44;99311.09;;;-2.22;76.51
57779;BME280;43608;49.486;9.640;2023-04-05T00:52:19;99334.06;;;-2.13;76.69
57779;BME280;43608;49.486;9.640;2023-04-05T00:52:55;99331.38;;;-2.15;76.54
57779;BME280;43608;49.486;9.640;2023-04-05T00:53:26;99323.59;;;-2.15;76.51
57779;BME280;43608;49.486;9.640;2023-04-05T00:53:57;99323.44;;;-2.18;76.64
57779;BME280;43608;49.486;9.640;2023-04-05T00:54:28;99320.84;;;-2.18;76.88
57779;BME280;43608;49.486;9.640;2023-04-05T00:55:01;99307.41;;;-2.26;76.38
57779;BME280;43608;49.486;9.640;2023-04-05T00:55:32;99323.34;;;-2.20;76.69
57779;BME280;43608;49.486;9.640;2023-04-05T00:56:03;99331.38;;;-2.15;76.50
57779;BME280;43608;49.486;9.640;2023-04-05T00:56:34;99331.31;;;-2.17;76.54
57779;BME280;43608;49.486;9.640;2023-04-05T00:57:06;99327.81;;;-2.17;76.40
57779;BME280;43608;49.486;9.640;2023-04-05T00:57:37;99310.72;;;-2.28;76.68
57779;BME280;43608;49.486;9.640;2023-04-05T00:58:11;99333.81;;;-2.18;76.52
57779;BME280;43608;49.486;9.640;2023-04-05T00:58:42;99331.22;;;-2.18;76.65
57779;BME280;43608;49.486;9.640;2023-04-05T00:59:12;99318.69;;;-2.25;76.55
57779;BME280;43608;49.486;9.640;2023-04-05T00:59:45;99331.22;;;-2.18;76.86
57779;BME280;43608;49.486;9.640;2023-04-05T01:00:15;99315.91;;;-2.28;76.85
57779;BME280;43608;49.486;9.640;2023-04-05T01:01:24;99305.19;;;-2.35;76.79
57779;BME280;43608;49.486;9.640;2023-04-05T01:01:59;99333.72;;;-2.20;76.86
57779;BME280;43608;49.486;9.640;2023-04-05T01:02:34;99316.72;;;-2.29;76.73
57779;BME280;43608;49.486;9.640;2023-04-05T01:03:09;99333.72;;;-2.20;76.85
57779;BME280;43608;49.486;9.640;2023-04-05T01:03:46;99332.81;;;-2.20;76.36
57779;BME280;43608;49.486;9.640;2023-04-05T01:04:18;99321.28;;;-2.25;76.80
57779;BME280;43608;49.486;9.640;2023-04-05T01:04:58;99318.53;;;-2.28;77.10
57779;BME280;43608;49.486;9.640;2023-04-05T01:08:13;99325.03;;;-2.20;77.12
57779;BME280;43608;49.486;9.640;2023-04-05T01:10:12;99315.56;;;-2.20;76.93
57779;BME280;43608;49.486;9.640;2023-04-05T01:10:30;99321.72;;;-2.18;76.65
57779;BME280;43608;49.486;9.640;2023-04-05T01:11:04;99292.47;;;-2.30;76.67
57779;BME280;43608;49.486;9.640;2023-04-05T01:11:37;99302.47;;;-2.21;76.71
57779;BME280;43608;49.486;9.640;2023-04-05T01:12:13;99295.22;;;-2.27;76.65
57779;BME280;43608;49.486;9.640;2023-04-05T01:12:49;99293.28;;;-2.31;76.46
57779;BME280;43608;49.486;9.640;2023-04-05T01:13:20;99313.13;;;-2.17;76.45
57779;BME280;43608;49.486;9.640;2023-04-05T01:13:59;99313.13;;;-2.17;76.36
57779;BME280;43608;49.486;9.640;2023-04-05T01:14:30;99293.63;;;-2.25;76.58
57779;BME280;43608;49.486;9.640;2023-04-05T01:15:00;99312.47;;;-2.12;76.48
57779;BME280;43608;49.486;9.640;2023-04-05T01:15:30;99297.09;;;-2.24;76.44
57779;BME280;43608;49.486;9.640;2023-04-05T01:16:01;99304.75;;;-2.11;76.36
57779;BME280;43608;49.486;9.640;2023-04-05T01:16:32;99315.16;;;-2.11;76.59
57779;BME280;43608;49.486;9.640;2023-04-05T01:17:03;99316.94;;;-2.10;76.33
57779;BME280;43608;49.486;9.640;2023-04-05T01:17:33;99289.47;;;-2.21;76.29
57779;BME280;43608;49.486;9.640;2023-04-05T01:18:08;99314.34;;;-2.10;76.15
57779;BME280;43608;49.486;9.640;2023-04-05T01:18:40;99289.41;;;-2.23;76.24
57779;BME280;43608;49.486;9.640;2023-04-05T01:19:16;99306.56;;;-2.10;76.21
57779;BME280;43608;49.486;9.640;2023-04-05T01:19:52;99310.97;;;-2.09;76.37
57779;BME280;43608;49.486;9.640;2023-04-05T01:20:23;99302.09;;;-2.12;76.23
57779;BME280;43608;49.486;9.640;2023-04-05T01:22:06;99308.28;;;-2.10;76.45
57779;BME280;43608;49.486;9.640;2023-04-05T01:23:35;99305.59;;;-2.12;76.37
57779;BME280;43608;49.486;9.640;2023-04-05T01:26:07;99310.69;;;-2.13;76.79
57779;BME280;43608;49.486;9.640;2023-04-05T01:27:23;99288.31;;;-2.26;76.80
57779;BME280;43608;49.486;9.640;2023-04-05T01:30:20;99304.72;;;-2.27;76.71
57779;BME280;43608;49.486;9.640;2023-04-05T01:31:50;99304.72;;;-2.27;76.72
57779;BME280;43608;49.486;9.640;2023-04-05T01:33:40;99314.84;;;-2.32;76.90
57779;BME280;43608;49.486;9.640;2023-04-05T01:35:44;99303.94;;;-2.41;76.71
57779;BME280;43608;49.486;9.640;2023-04-05T01:36:44;99296.59;;;-2.49;76.41
57779;BME280;43608;49.486;9.640;2023-04-05T01:37:19;99292.13;;;-2.51;76.68
57779;BME280;43608;49.486;9.640;2023-04-05T01:37:59;99303.66;;;-2.46;76.80
57779;BME280;43608;49.486;9.640;2023-04-05T01:38:30;99305.47;;;-2.45;76.61
57779;BME280;43608;49.486;9.640;2023-04-05T01:39:07;99302.69;;;-2.48;76.95
57779;BME280;43608;49.486;9.640;2023-04-05T01:39:38;99292.03;;;-2.53;77.02
57779;BME280;43608;49.486;9.640;2023-04-05T01:40:09;99288.28;;;-2.58;77.05
57779;BME280;43608;49.486;9.640;2023-04-05T01:40:40;99290.09;;;-2.57;77.17
57779;BME280;43608;49.486;9.640;2023-04-05T01:41:11;99306.97;;;-2.49;77.10
57779;BME280;43608;49.486;9.640;2023-04-05T01:41:42;99290.97;;;-2.56;77.18
57779;BME280;43608;49.486;9.640;2023-04-05T01:42:12;99297.31;;;-2.51;77.30
57779;BME280;43608;49.486;9.640;2023-04-05T01:42:43;99278.28;;;-2.67;77.23
57779;BME280;43608;49.486;9.640;2023-04-05T01:43:16;99305.03;;;-2.53;77.37
57779;BME280;43608;49.486;9.640;2023-04-05T01:43:47;99296.00;;;-2.59;77.40
57779;BME280;43608;49.486;9.640;2023-04-05T01:44:17;99301.09;;;-2.61;77.46
57779;BME280;43608;49.486;9.640;2023-04-05T01:44:47;99291.53;;;-2.62;77.47
57779;BME280;43608;49.486;9.640;2023-04-05T01:45:18;99278.09;;;-2.70;77.31
57779;BME280;43608;49.486;9.640;2023-04-05T01:45:49;99284.38;;;-2.66;77.40
57779;BME280;43608;49.486;9.640;2023-04-05T01:46:19;99298.59;;;-2.59;77.59
57779;BME280;43608;49.486;9.640;2023-04-05T01:46:50;99284.38;;;-2.66;77.83
57779;BME280;43608;49.486;9.640;2023-04-05T01:47:20;99297.44;;;-2.64;77.59
57779;BME280;43608;49.486;9.640;2023-04-05T01:47:53;99285.97;;;-2.68;77.54
57779;BME280;43608;49.486;9.640;2023-04-05T01:48:24;99304.41;;;-2.63;77.63
57779;BME280;43608;49.486;9.640;2023-04-05T01:48:55;99287.41;;;-2.73;77.69
57779;BME280;43608;49.486;9.640;2023-04-05T01:49:27;99291.78;;;-2.72;77.61
57779;BME280;43608;49.486;9.640;2023-04-05T01:49:58;99277.41;;;-2.82;77.72
57779;BME280;43608;49.486;9.640;2023-04-05T01:50:28;99273.00;;;-2.83;77.65
57779;BME280;43608;49.486;9.640;2023-04-05T01:50:59;99298.84;;;-2.70;77.86
57779;BME280;43608;49.486;9.640;2023-04-05T01:51:30;99288.03;;;-2.77;77.82
57779;BME280;43608;49.486;9.640;2023-04-05T01:52:01;99280.72;;;-2.85;77.71
57779;BME280;43608;49.486;9.640;2023-04-05T01:52:31;99302.16;;;-2.72;77.63
57779;BME280;43608;49.486;9.640;2023-04-05T01:53:02;99304.75;;;-2.72;77.70
57779;BME280;43608;49.486;9.640;2023-04-05T01:53:32;99293.13;;;-2.79;77.61
57779;BME280;43608;49.486;9.640;2023-04-05T01:54:03;99307.28;;;-2.74;77.60
57779;BME280;43608;49.486;9.640;2023-04-05T01:54:34;99306.41;;;-2.74;77.70
57779;BME280;43608;49.486;9.640;2023-04-05T01:55:04;99275.97;;;-2.92;77.77
57779;BME280;43608;49.486;9.640;2023-04-05T01:55:37;99299.31;;;-2.77;77.67
57779;BME280;43608;49.486;9.640;2023-04-05T01:56:08;99299.31;;;-2.77;77.62
57779;BME280;43608;49.486;9.640;2023-04-05T01:56:38;99301.81;;;-2.78;77.82
57779;BME280;43608;49.486;9.640;2023-04-05T01:57:09;99292.97;;;-2.82;77.67
57779;BME280;43608;49.486;9.640;2023-04-05T01:57:39;99283.81;;;-2.90;77.41
57779;BME280;43608;49.486;9.640;2023-04-05T01:58:10;99273.91;;;-2.97;77.37
57779;BME280;43608;49.486;9.640;2023-04-05T01:58:40;99300.75;;;-2.82;78.00
57779;BME280;43608;49.486;9.640;2023-04-05T01:59:11;99298.97;;;-2.83;77.51
57779;BME280;43608;49.486;9.640;2023-04-05T01:59:43;99294.41;;;-2.87;77.65
57779;BME280;43608;49.486;9.640;2023-04-05T02:00:14;99289.94;;;-2.90;77.55
57779;BME280;43608;49.486;9.640;2023-04-05T02:00:44;99299.66;;;-2.86;77.67
57779;BME280;43608;49.486;9.640;2023-04-05T02:01:14;99262.16;;;-3.06;77.46
57779;BME280;43608;49.486;9.640;2023-04-05T02:01:48;99282.50;;;-2.99;77.45
57779;BME280;43608;49.486;9.640;2023-04-05T02:02:18;99261.91;;;-3.10;77.64
57779;BME280;43608;49.486;9.640;2023-04-05T02:02:49;99301.19;;;-2.89;77.25
57779;BME280;43608;49.486;9.640;2023-04-05T02:03:19;99294.91;;;-2.93;77.39
57779;BME280;43608;49.486;9.640;2023-04-05T02:03:50;99267.19;;;-3.09;77.54
57779;BME280;43608;49.486;9.640;2023-04-05T02:04:20;99297.59;;;-2.91;77.52
57779;BME280;43608;49.486;9.640;2023-04-05T02:04:50;99228.66;;;-3.33;77.45
57779;BME280;43608;49.486;9.640;2023-04-05T02:05:21;99282.13;;;-3.05;77.81
57779;BME280;43608;49.486;9.640;2023-04-05T02:05:52;99288.69;;;-2.96;77.22
57779;BME280;43608;49.486;9.640;2023-04-05T02:06:22;99298.13;;;-2.97;77.67
57779;BME280;43608;49.486;9.640;2023-04-05T02:06:52;99298.94;;;-2.98;77.70
57779;BME280;43608;49.486;9.640;2023-04-05T02:07:23;99301.66;;;-2.96;77.71
57779;BME280;43608;49.486;9.640;2023-04-05T02:07:54;99294.56;;;-2.99;77.76
57779;BME280;43608;49.486;9.640;2023-04-05T02:08:25;99300.81;;;-2.95;77.73
57779;BME280;43608;49.486;9.640;2023-04-05T02:08:55;99289.19;;;-3.02;77.85
57779;BME280;43608;49.486;9.640;2023-04-05T02:09:25;99299.94;;;-2.96;77.84
57779;BME280;43608;49.486;9.640;2023-04-05T02:09:56;99234.47;;;-3.37;77.82
57779;BME280;43608;49.486;9.640;2023-04-05T02:10:29;99286.50;;;-3.04;78.09
57779;BME280;43608;49.486;9.640;2023-04-05T02:11:03;99288.09;;;-3.06;78.25
57779;BME280;43608;49.486;9.640;2023-04-05T02:11:33;99296.25;;;-3.00;78.30
57779;BME280;43608;49.486;9.640;2023-04-05T02:12:03;99284.34;;;-3.11;78.26
57779;BME280;43608;49.486;9.640;2023-04-05T02:12:34;99271.91;;;-3.17;78.23
57779;BME280;43608;49.486;9.640;2023-04-05T02:13:05;99271.22;;;-3.14;78.29
57779;BME280;43608;49.486;9.640;2023-04-05T02:13:36;99273.81;;;-3.14;78.30
57779;BME280;43608;49.486;9.640;2023-04-05T02:14:06;99276.47;;;-3.12;78.33
57779;BME280;43608;49.486;9.640;2023-04-05T02:14:38;99295.16;;;-3.03;78.32
57779;BME280;43608;49.486;9.640;2023-04-05T02:15:08;99286.06;;;-3.11;78.21
57779;BME280;43608;49.486;9.640;2023-04-05T02:15:39;99278.19;;;-3.13;78.23
57779;BME280;43608;49.486;9.640;2023-04-05T02:16:09;99294.22;;;-3.05;78.46
57779;BME280;43608;49.486;9.640;2023-04-05T02:16:40;99287.94;;;-3.09;78.28
57779;BME280;43608;49.486;9.640;2023-04-05T02:17:10;99286.84;;;-3.12;78.41
57779;BME280;43608;49.486;9.640;2023-04-05T02:17:41;99269.31;;;-3.17;78.50
57779;BME280;43608;49.486;9.640;2023-04-05T02:18:15;99278.00;;;-3.16;78.50
57779;BME280;43608;49.486;9.640;2023-04-05T02:18:57;99286.75;;;-3.14;78.62
57779;BME280;43608;49.486;9.640;2023-04-05T02:19:31;99282.22;;;-3.18;78.59
57779;BME280;43608;49.486;9.640;2023-04-05T02:20:07;99293.84;;;-3.11;78.80
57779;BME280;43608;49.486;9.640;2023-04-05T02:20:42;99259.84;;;-3.31;78.95
57779;BME280;43608;49.486;9.640;2023-04-05T02:21:13;99280.25;;;-3.22;78.74
57779;BME280;43608;49.486;9.640;2023-04-05T02:21:46;99268.88;;;-3.24;78.90
57779;BME280;43608;49.486;9.640;2023-04-05T02:22:16;99290.88;;;-3.18;78.49
57779;BME280;43608;49.486;9.640;2023-04-05T02:22:50;99296.13;;;-3.16;78.90
57779;BME280;43608;49.486;9.640;2023-04-05T02:23:20;99292.38;;;-3.21;78.78
57779;BME280;43608;49.486;9.640;2023-04-05T02:23:54;99279.06;;;-3.27;78.60
57779;BME280;43608;49.486;9.640;2023-04-05T02:24:24;99284.44;;;-3.24;78.98
57779;BME280;43608;49.486;9.640;2023-04-05T02:24:55;99293.38;;;-3.19;79.00
57779;BME280;43608;49.486;9.640;2023-04-05T02:25:27;99296.84;;;-3.19;78.91
57779;BME280;43608;49.486;9.640;2023-04-05T02:25:58;99290.59;;;-3.22;78.85
57779;BME280;43608;49.486;9.640;2023-04-05T02:26:28;99287.00;;;-3.24;79.04
57779;BME280;43608;49.486;9.640;2023-04-05T02:27:01;99290.41;;;-3.25;78.94
57779;BME280;43608;49.486;9.640;2023-04-05T02:27:32;99286.22;;;-3.23;78.90
57779;BME280;43608;49.486;9.640;2023-04-05T02:28:02;99288.72;;;-3.25;79.13
57779;BME280;43608;49.486;9.640;2023-04-05T02:28:33;99284.16;;;-3.29;79.28
57779;BME280;43608;49.486;9.640;2023-04-05T02:29:03;99282.53;;;-3.27;78.88
57779;BME280;43608;49.486;9.640;2023-04-05T02:29:34;99277.09;;;-3.32;79.13
57779;BME280;43608;49.486;9.640;2023-04-05T02:30:05;99271.72;;;-3.35;79.20
57779;BME280;43608;49.486;9.640;2023-04-05T02:30:36;99286.06;;;-3.26;79.05
57779;BME280;43608;49.486;9.640;2023-04-05T02:31:10;99288.63;;;-3.26;79.14
57779;BME280;43608;49.486;9.640;2023-04-05T02:31:41;99259.91;;;-3.44;79.24
57779;BME280;43608;49.486;9.640;2023-04-05T02:32:14;99292.03;;;-3.27;79.32
57779;BME280;43608;49.486;9.640;2023-04-05T02:32:44;99282.16;;;-3.33;79.51
57779;BME280;43608;49.486;9.640;2023-04-05T02:33:15;99283.97;;;-3.32;79.22
57779;BME280;43608;49.486;9.640;2023-04-05T02:33:45;99290.16;;;-3.30;78.90
57779;BME280;43608;49.486;9.640;2023-04-05T02:34:20;99261.59;;;-3.45;79.17
57779;BME280;43608;49.486;9.640;2023-04-05T02:34:52;99282.16;;;-3.33;79.53
57779;BME280;43608;49.486;9.640;2023-04-05T02:35:22;99260.50;;;-3.49;79.33
57779;BME280;43608;49.486;9.640;2023-04-05T02:35:53;99256.16;;;-3.50;79.39
57779;BME280;43608;49.486;9.640;2023-04-05T02:36:23;99274.03;;;-3.39;79.56
57779;BME280;43608;49.486;9.640;2023-04-05T02:36:57;99281.91;;;-3.38;79.05
57779;BME280;43608;49.486;9.640;2023-04-05T02:37:28;99266.78;;;-3.45;79.41
57779;BME280;43608;49.486;9.640;2023-04-05T02:37:58;99262.22;;;-3.49;79.42
57779;BME280;43608;49.486;9.640;2023-04-05T02:38:28;99270.38;;;-3.43;79.23
57779;BME280;43608;49.486;9.640;2023-04-05T02:38:59;99281.69;;;-3.41;79.70
57779;BME280;43608;49.486;9.640;2023-04-05T02:39:29;99267.41;;;-3.49;79.53
57779;BME280;43608;49.486;9.640;2023-04-05T02:40:07;99262.75;;;-3.55;79.23
57779;BME280;43608;49.486;9.640;2023-04-05T02:40:41;99265.59;;;-3.50;79.45
57779;BME280;43608;49.486;9.640;2023-04-05T02:41:11;99291.09;;;-3.43;79.61
57779;BME280;43608;49.486;9.640;2023-04-05T02:41:41;99259.94;;;-3.58;79.47
57779;BME280;43608;49.486;9.640;2023-04-05T02:42:12;99274.28;;;-3.50;79.69
57779;BME280;43608;49.486;9.640;2023-04-05T02:42:43;99268.97;;;-3.51;79.58
57779;BME280;43608;49.486;9.640;2023-04-05T02:43:13;99279.34;;;-3.51;79.74
57779;BME280;43608;49.486;9.640;2023-04-05T02:43:43;99266.38;;;-3.51;79.80
57779;BME280;43608;49.486;9.640;2023-04-05T02:44:17;99285.63;;;-3.47;79.62
57779;BME280;43608;49.486;9.640;2023-04-05T02:44:47;99295.09;;;-3.48;79.66
57779;BME280;43608;49.486;9.640;2023-04-05T02:45:18;99256.19;;;-3.63;79.50
57779;BME280;43608;49.486;9.640;2023-04-05T02:45:48;99252.63;;;-3.65;79.75
57779;BME280;43608;49.486;9.640;2023-04-05T02:46:20;99281.06;;;-3.52;79.25
57779;BME280;43608;49.486;9.640;2023-04-05T02:46:50;99282.78;;;-3.52;79.31
57779;BME280;43608;49.486;9.640;2023-04-05T02:47:20;99259.59;;;-3.64;79.62
57779;BME280;43608;49.486;9.640;2023-04-05T02:47:51;99273.81;;;-3.57;79.28
57779;BME280;43608;49.486;9.640;2023-04-05T02:48:21;99259.47;;;-3.66;79.22
57779;BME280;43608;49.486;9.640;2023-04-05T02:48:52;99280.78;;;-3.56;78.99
57779;BME280;43608;49.486;9.640;2023-04-05T02:49:22;99281.59;;;-3.57;79.33
57779;BME280;43608;49.486;9.640;2023-04-05T02:49:52;99278.00;;;-3.59;79.56
57779;BME280;43608;49.486;9.640;2023-04-05T02:50:23;99278.00;;;-3.59;79.44
57779;BME280;43608;49.486;9.640;2023-04-05T02:50:53;99276.13;;;-3.62;79.25
57779;BME280;43608;49.486;9.640;2023-04-05T02:51:24;99274.13;;;-3.66;79.45
57779;BME280;43608;49.486;9.640;2023-04-05T02:51:56;99277.75;;;-3.64;79.53
57779;BME280;43608;49.486;9.640;2023-04-05T02:52:26;99275.84;;;-3.67;79.26
57779;BME280;43608;49.486;9.640;2023-04-05T02:52:57;99280.41;;;-3.62;79.36
57779;BME280;43608;49.486;9.640;2023-04-05T02:53:27;99273.97;;;-3.69;79.34
57779;BME280;43608;49.486;9.640;2023-04-05T02:53:58;99268.56;;;-3.72;79.68
57779;BME280;43608;49.486;9.640;2023-04-05T02:54:28;99260.53;;;-3.77;79.48
57779;BME280;43608;49.486;9.640;2023-04-05T02:54:58;99278.22;;;-3.70;79.58
57779;BME280;43608;49.486;9.640;2023-04-05T02:55:30;99274.94;;;-3.67;79.83
57779;BME280;43608;49.486;9.640;2023-04-05T02:56:03;99277.44;;;-3.69;79.60
57779;BME280;43608;49.486;9.640;2023-04-05T02:56:33;99284.50;;;-3.66;79.83
57779;BME280;43608;49.486;9.640;2023-04-05T02:57:03;99271.16;;;-3.72;80.02
57779;BME280;43608;49.486;9.640;2023-04-05T02:57:34;99275.56;;;-3.71;80.06
57779;BME280;43608;49.486;9.640;2023-04-05T02:58:04;99279.94;;;-3.70;80.00
57779;BME280;43608;49.486;9.640;2023-04-05T02:58:35;99271.06;;;-3.74;79.67
57779;BME280;43608;49.486;9.640;2023-04-05T02:59:05;99281.75;;;-3.69;79.80
57779;BME280;43608;49.486;9.640;2023-04-05T02:59:36;99276.16;;;-3.75;80.11
57779;BME280;43608;49.486;9.640;2023-04-05T03:00:10;99270.00;;;-3.77;79.79
57779;BME280;43608;49.486;9.640;2023-04-05T03:00:44;99281.63;;;-3.71;80.06
57779;BME280;43608;49.486;9.640;2023-04-05T03:01:15;99273.66;;;-3.74;80.14
57779;BME280;43608;49.486;9.640;2023-04-05T03:01:46;99257.38;;;-3.86;80.17
57779;BME280;43608;49.486;9.640;2023-04-05T03:02:17;99249.31;;;-3.91;80.20
57779;BME280;43608;49.486;9.640;2023-04-05T03:02:47;99275.97;;;-3.78;80.01
57779;BME280;43608;49.486;9.640;2023-04-05T03:03:18;99269.72;;;-3.82;79.84
57779;BME280;43608;49.486;9.640;2023-04-05T03:03:49;99285.75;;;-3.74;79.85
57779;BME280;43608;49.486;9.640;2023-04-05T03:04:20;99256.09;;;-3.93;80.25